Time;durP1;ratioP1;P1;durP2;ratioP2;P2;SDS_P1;SDS_P2;PMS_P1;PMS_P2;Temp;Humidity;BMP_temperature;BMP_pressure;BME280_temperature;BME280_humidity;BME280_pressure;Samples;Min_cycle;Max_cycle;Signal;HPM_P1;HPM_P2
2021/08/31 00:09:02;;;;;;;20.55;13.80;;;;;;;15.26;94.04;100783.84;20699137;28;20054;-80
2021/08/31 00:19:04;;;;;;;22.38;14.30;;;;;;;15.27;94.36;100789.97;20702385;28;20448;-81
2021/08/31 00:29:05;;;;;;;20.00;12.98;;;;;;;15.16;94.51;100799.97;20703413;28;20046;-80
2021/08/31 00:39:07;;;;;;;16.25;11.75;;;;;;;15.08;93.62;100794.91;20700784;28;20057;-81
2021/08/31 00:49:12;;;;;;;18.27;12.50;;;;;;;15.02;93.27;100793.31;20685178;28;20049;-81
2021/08/31 00:59:15;;;;;;;;;;;;;;;14.91;92.92;100795.38;20701338;28;20077;-81
2021/08/31 01:09:23;;;;;;;20.50;13.23;;;;;;;14.85;92.92;100792.91;20679944;28;19922;-81
2021/08/31 01:19:29;;;;;;;17.45;12.75;;;;;;;14.82;92.75;100803.53;20699841;28;20177;-81
2021/08/31 01:29:32;;;;;;;18.65;12.95;;;;;;;14.86;91.99;100811.34;20698251;28;20081;-80
2021/08/31 01:39:33;;;;;;;20.13;14.30;;;;;;;14.79;92.12;100815.03;20690262;28;20054;-81
2021/08/31 01:49:35;;;;;;;19.42;13.25;;;;;;;14.77;92.80;100821.25;20688334;28;20050;-82
2021/08/31 01:59:37;;;;;;;19.13;12.82;;;;;;;14.75;91.89;100823.91;20689552;28;20481;-80
2021/08/31 02:09:38;;;;;;;21.08;12.48;;;;;;;14.74;91.13;100823.97;20678901;28;20046;-80
2021/08/31 02:19:40;;;;;;;17.83;12.13;;;;;;;14.57;90.88;100825.28;20673659;28;20552;-81
2021/08/31 02:29:42;;;;;;;21.67;12.77;;;;;;;14.42;90.04;100824.72;20719530;28;20046;-81
2021/08/31 02:39:44;;;;;;;17.63;11.98;;;;;;;14.25;90.64;100840.97;20738046;28;20070;-81
2021/08/31 02:49:45;;;;;;;18.17;12.52;;;;;;;14.05;90.80;100831.75;20744415;28;20074;-81
2021/08/31 02:59:47;;;;;;;18.63;13.05;;;;;;;13.97;90.75;100833.69;20750235;28;20136;-80
2021/08/31 03:09:49;;;;;;;18.00;12.35;;;;;;;13.81;90.71;100841.09;20712332;28;20058;-80
2021/08/31 03:19:53;;;;;;;19.90;13.07;;;;;;;13.76;90.76;100857.88;20709883;28;20058;-81
2021/08/31 03:29:55;;;;;;;21.83;13.48;;;;;;;13.66;90.93;100865.09;20688996;28;20309;-81
2021/08/31 03:39:57;;;;;;;19.05;12.75;;;;;;;13.61;90.73;100882.75;20667918;28;20124;-80
2021/08/31 03:50:01;;;;;;;19.08;13.35;;;;;;;13.61;90.76;100888.03;20699969;28;20082;-80
2021/08/31 04:00:04;;;;;;;22.00;13.93;;;;;;;13.39;91.39;100895.47;20688673;28;20058;-82
2021/08/31 04:10:07;;;;;;;23.38;14.30;;;;;;;13.13;91.83;100895.03;20689888;28;20108;-80
2021/08/31 04:20:09;;;;;;;22.10;14.50;;;;;;;13.09;91.99;100895.09;20704583;28;20428;-80
2021/08/31 04:30:12;;;;;;;21.98;14.27;;;;;;;13.17;91.09;100901.97;20703965;28;20051;-81
2021/08/31 04:40:15;;;;;;;20.73;13.30;;;;;;;12.91;92.23;100918.22;20698745;28;20062;-80
2021/08/31 04:50:17;;;;;;;23.05;14.23;;;;;;;13.03;92.01;100911.00;20673202;28;20194;-81
2021/08/31 05:00:21;;;;;;;25.33;14.97;;;;;;;13.08;91.72;100914.41;20649050;28;20054;-81
2021/08/31 05:10:26;;;;;;;23.97;14.57;;;;;;;13.07;91.19;100927.56;20713451;28;20046;-82
2021/08/31 05:20:28;;;;;;;22.27;14.57;;;;;;;13.11;91.22;100937.13;20657287;28;20068;-81
2021/08/31 05:30:30;;;;;;;22.40;14.48;;;;;;;13.24;90.61;100948.34;20675284;28;20547;-82
2021/08/31 05:40:31;;;;;;;23.58;14.43;;;;;;;13.23;90.34;100957.13;20674732;28;20104;-81
2021/08/31 05:50:34;;;;;;;24.77;15.68;;;;;;;13.68;89.20;100972.94;20674501;28;20489;-81
2021/08/31 06:00:37;;;;;;;20.92;13.63;;;;;;;13.76;88.45;100989.47;20673072;28;20460;-81
2021/08/31 06:10:46;;;;;;;22.38;12.30;;;;;;;13.93;88.26;100990.00;20685713;28;20506;-82
2021/08/31 06:20:51;;;;;;;19.23;12.65;;;;;;;14.17;87.06;100987.75;20703807;28;20046;-84
2021/08/31 06:30:55;;;;;;;19.33;11.63;;;;;;;14.10;87.04;100987.88;20711758;28;20688;-83
2021/08/31 06:40:57;;;;;;;22.77;12.85;;;;;;;14.46;86.49;100995.88;20686384;28;20452;-82
2021/08/31 06:50:59;;;;;;;15.80;11.02;;;;;;;14.70;85.01;101017.34;20669103;28;20085;-82
2021/08/31 07:01:00;;;;;;;15.07;10.23;;;;;;;14.74;84.53;101008.47;20690676;28;20050;-83
2021/08/31 07:11:03;;;;;;;16.50;9.95;;;;;;;15.11;84.13;100993.50;20687306;28;20050;-83
2021/08/31 07:21:04;;;;;;;17.25;9.65;;;;;;;15.46;81.27;101001.44;20667242;28;20085;-84
2021/08/31 07:31:06;;;;;;;12.75;8.70;;;;;;;15.96;79.35;100996.59;20667751;28;20097;-83
2021/08/31 07:41:08;;;;;;;14.35;8.23;;;;;;;16.05;77.72;101005.13;20670873;28;20543;-82
2021/08/31 07:51:11;;;;;;;11.73;8.50;;;;;;;16.02;77.67;101022.81;20673753;28;20122;-82
2021/08/31 08:01:12;;;;;;;11.90;8.10;;;;;;;16.36;76.23;101028.00;20730480;28;20097;-81
2021/08/31 08:11:15;;;;;;;11.50;8.10;;;;;;;16.82;75.33;101043.38;20675375;28;20054;-81
2021/08/31 08:21:17;;;;;;;14.68;8.35;;;;;;;17.09;75.79;101052.19;20673360;28;20046;-82
2021/08/31 08:31:18;;;;;;;13.00;7.80;;;;;;;17.03;74.42;101068.28;20671660;28;20092;-84
2021/08/31 08:41:20;;;;;;;12.45;8.32;;;;;;;17.24;73.91;101069.34;20670320;28;20047;-80
2021/08/31 08:51:22;;;;;;;14.55;9.60;;;;;;;16.86;75.09;101086.44;20671181;28;20046;-83
2021/08/31 09:01:39;;;;;;;15.27;9.65;;;;;;;16.87;73.93;101082.91;20655486;28;20097;-83
2021/08/31 09:11:46;;;;;;;13.75;8.43;;;;;;;16.99;72.39;101098.38;20650737;28;20042;-82
2021/08/31 09:21:49;;;;;;;11.23;8.05;;;;;;;17.43;72.05;101090.78;20651919;28;20046;-82
2021/08/31 09:31:52;;;;;;;14.40;8.05;;;;;;;17.96;69.90;101082.81;20666433;28;20116;-82
2021/08/31 09:41:54;;;;;;;13.55;8.13;;;;;;;18.46;68.29;101082.78;20651574;28;20381;-80
2021/08/31 09:52:09;;;;;;;20.50;8.07;;;;;;;18.56;68.49;101093.91;20666326;28;20046;-79
2021/08/31 10:02:10;;;;;;;11.07;8.13;;;;;;;18.68;66.70;101089.03;20668984;28;20524;-80
2021/08/31 10:12:17;;;;;;;10.90;6.75;;;;;;;18.00;66.85;101084.44;20674443;28;20058;-83
2021/08/31 10:22:20;;;;;;;9.48;5.90;;;;;;;18.60;65.51;101091.09;20664588;28;20109;-83
2021/08/31 10:32:32;;;;;;;9.82;5.38;;;;;;;19.42;62.59;101083.44;20662369;28;20046;-82
2021/08/31 10:42:34;;;;;;;10.57;5.68;;;;;;;20.23;62.00;101085.28;20662758;28;20122;-83
2021/08/31 10:52:43;;;;;;;9.15;6.03;;;;;;;19.21;62.95;101088.72;20653340;28;20099;-83
2021/08/31 11:02:48;;;;;;;9.50;5.70;;;;;;;19.59;62.21;101090.69;20659106;28;20042;-82
2021/08/31 11:12:51;;;;;;;9.52;4.82;;;;;;;19.84;58.92;101099.41;20660273;28;20405;-83
2021/08/31 11:23:03;;;;;;;9.57;5.30;;;;;;;19.76;59.25;101090.03;20698159;28;20073;-83
2021/08/31 11:33:19;;;;;;;11.15;5.60;;;;;;;19.53;60.24;101093.63;20664366;28;20118;-81
2021/08/31 11:43:31;;;;;;;8.38;5.28;;;;;;;20.05;57.24;101097.59;20680046;28;20050;-79
2021/08/31 11:53:32;;;;;;;7.60;4.70;;;;;;;20.35;57.46;101090.03;20681818;28;20054;-81
2021/08/31 12:03:35;;;;;;;7.80;4.35;;;;;;;20.15;56.46;101106.88;20672331;28;20144;-80
2021/08/31 12:13:40;;;;;;;8.45;4.43;;;;;;;20.77;55.04;101099.66;20676251;28;20050;-81
2021/08/31 12:23:43;;;;;;;7.28;4.10;;;;;;;20.92;54.63;101098.06;20678992;28;20120;-82
2021/08/31 12:33:46;;;;;;;7.25;4.38;;;;;;;20.72;55.05;101094.56;20695604;28;20113;-82
2021/08/31 12:43:50;;;;;;;8.07;4.63;;;;;;;20.40;53.43;101103.13;20692801;28;20100;-82
2021/08/31 12:53:51;;;;;;;7.43;4.45;;;;;;;20.27;55.66;101091.34;20718146;28;20094;-82
2021/08/31 13:03:55;;;;;;;6.57;4.32;;;;;;;20.15;56.17;101101.56;20736333;28;20073;-80
2021/08/31 13:13:57;;;;;;;11.48;4.78;;;;;;;20.80;54.60;101098.69;20681941;28;20050;-84
2021/08/31 13:23:59;;;;;;;7.35;4.65;;;;;;;20.07;56.56;101102.81;20671289;28;20116;-83
2021/08/31 13:34:01;;;;;;;9.00;4.90;;;;;;;20.07;57.61;101114.31;20662588;28;20098;-84
2021/08/31 13:44:05;;;;;;;7.40;5.00;;;;;;;20.67;54.21;101101.91;20660467;28;20046;-83
2021/08/31 13:54:08;;;;;;;10.47;4.93;;;;;;;20.59;54.22;101098.72;20656209;28;20100;-82
2021/08/31 14:04:13;;;;;;;6.80;4.25;;;;;;;20.07;54.91;101101.03;20650850;28;20043;-83
2021/08/31 14:14:15;;;;;;;8.45;4.50;;;;;;;20.05;55.44;101113.53;20629429;28;20540;-84
2021/08/31 14:24:17;;;;;;;7.00;4.40;;;;;;;19.83;55.78;101112.72;20677751;28;20046;-84
2021/08/31 14:34:19;;;;;;;9.65;4.75;;;;;;;19.88;57.12;101111.63;20659663;28;20200;-84
2021/08/31 14:44:21;;;;;;;8.32;4.70;;;;;;;19.90;55.89;101111.56;20648967;28;20038;-85
2021/08/31 14:54:22;;;;;;;7.93;4.30;;;;;;;20.09;56.31;101115.13;20710518;28;20127;-85
2021/08/31 15:04:24;;;;;;;8.60;3.97;;;;;;;20.24;56.17;101102.97;20680335;28;20047;-85
2021/08/31 15:14:25;;;;;;;7.47;4.35;;;;;;;19.92;55.90;101099.03;20680596;28;20140;-85
2021/08/31 15:24:27;;;;;;;8.18;5.03;;;;;;;20.10;56.59;101094.72;20678029;28;20097;-85
2021/08/31 15:34:33;;;;;;;7.40;4.28;;;;;;;20.21;57.31;101103.09;20695792;28;20534;-84
2021/08/31 15:44:35;;;;;;;8.88;4.97;;;;;;;19.81;58.51;101107.50;20676318;28;20409;-85
2021/08/31 15:54:41;;;;;;;9.82;4.45;;;;;;;19.98;59.09;101106.78;20689668;28;20046;-85
2021/08/31 16:04:44;;;;;;;10.60;5.20;;;;;;;19.92;59.19;101093.72;20698352;28;20081;-83
2021/08/31 16:14:46;;;;;;;10.67;5.43;;;;;;;19.98;59.21;101091.69;20674002;28;20057;-83
2021/08/31 16:24:49;;;;;;;7.72;4.82;;;;;;;19.88;58.80;101094.78;20690352;28;20483;-84
2021/08/31 16:34:51;;;;;;;8.00;4.60;;;;;;;19.73;59.45;101096.31;20684323;28;20038;-83
2021/08/31 16:44:54;;;;;;;8.40;5.13;;;;;;;19.56;61.70;101094.34;20691895;28;20097;-83
2021/08/31 16:54:56;;;;;;;10.73;4.68;;;;;;;19.56;63.80;101088.19;20697092;28;20101;-84
2021/08/31 17:04:58;;;;;;;8.77;5.35;;;;;;;19.36;62.81;101086.34;20685203;28;20594;-83
2021/08/31 17:14:59;;;;;;;10.57;5.20;;;;;;;19.34;63.87;101101.47;20687152;28;20140;-83
2021/08/31 17:25:02;;;;;;;8.52;5.50;;;;;;;19.15;65.46;101112.84;20696867;28;20121;-83
2021/08/31 17:35:04;;;;;;;8.15;5.32;;;;;;;18.50;71.85;101120.66;20692244;28;20096;-84
2021/08/31 17:45:07;;;;;;;11.02;5.55;;;;;;;18.17;74.19;101116.53;20689277;28;20076;-83
2021/08/31 17:55:12;;;;;;;9.85;5.80;;;;;;;17.85;75.42;101130.03;20652110;28;20082;-83
2021/08/31 18:05:13;;;;;;;10.82;6.20;;;;;;;17.54;74.18;101132.81;20631937;28;20030;-82
2021/08/31 18:15:15;;;;;;;8.02;5.60;;;;;;;17.32;73.69;101153.81;20613884;28;20109;-83
2021/08/31 18:25:17;;;;;;;11.40;7.35;;;;;;;17.15;73.54;101159.63;20617608;28;20109;-83
2021/08/31 18:35:19;;;;;;;13.00;8.98;;;;;;;16.84;74.54;101168.47;20663763;28;20409;-82
2021/08/31 18:45:21;;;;;;;10.50;7.88;;;;;;;16.64;77.01;101184.91;20688602;28;20050;-82
2021/08/31 18:55:23;;;;;;;16.75;10.63;;;;;;;16.39;78.94;101194.44;20696982;28;20662;-82
2021/08/31 19:05:25;;;;;;;16.92;10.60;;;;;;;16.20;78.15;101194.03;20667107;28;20039;-83
2021/08/31 19:15:27;;;;;;;17.80;11.05;;;;;;;15.95;80.99;101207.00;20691139;28;20046;-81
2021/08/31 19:25:28;;;;;;;17.83;11.73;;;;;;;15.74;81.03;101215.44;20693947;28;20061;-82
2021/08/31 19:35:30;;;;;;;18.15;12.10;;;;;;;15.46;82.06;101220.47;20707737;28;20043;-81
2021/08/31 19:45:32;;;;;;;18.13;12.70;;;;;;;15.27;82.88;101238.47;20704620;28;20073;-82
2021/08/31 19:55:33;;;;;;;23.02;13.82;;;;;;;15.15;83.96;101239.63;20703728;28;20046;-82
2021/08/31 20:05:35;;;;;;;21.25;13.55;;;;;;;15.04;83.32;101242.50;20689237;28;20046;-81
2021/08/31 20:15:40;;;;;;;24.10;14.10;;;;;;;14.82;84.44;101244.69;20703330;28;20050;-80
2021/08/31 20:25:42;;;;;;;25.63;15.85;;;;;;;14.69;83.97;101244.94;20685150;28;20492;-81
2021/08/31 20:35:44;;;;;;;25.98;15.10;;;;;;;14.55;84.76;101253.97;20684608;28;20042;-80
2021/08/31 20:45:46;;;;;;;26.33;15.30;;;;;;;14.43;84.58;101254.19;20680961;28;20073;-80
2021/08/31 20:55:48;;;;;;;25.67;15.15;;;;;;;14.22;85.78;101259.81;20697437;28;20046;-80
2021/08/31 21:05:50;;;;;;;30.08;16.45;;;;;;;14.09;86.51;101259.16;20688016;28;20072;-79
2021/08/31 21:15:52;;;;;;;27.80;15.77;;;;;;;14.07;86.19;101260.94;20696297;28;20177;-80
2021/08/31 21:25:53;;;;;;;30.58;16.85;;;;;;;13.98;85.80;101277.75;20677758;28;20042;-80
2021/08/31 21:35:55;;;;;;;29.48;17.45;;;;;;;13.74;86.31;101283.38;20673690;28;20046;-80
2021/08/31 21:45:57;;;;;;;28.05;16.73;;;;;;;13.58;87.28;101293.28;20664034;28;20124;-80
2021/08/31 21:55:59;;;;;;;29.30;17.67;;;;;;;13.40;87.01;101299.63;20683059;28;20051;-81
2021/08/31 22:06:01;;;;;;;25.70;16.17;;;;;;;13.08;88.45;101303.53;20660112;28;20057;-80
2021/08/31 22:16:03;;;;;;;31.70;18.17;;;;;;;13.12;88.58;101299.06;20673260;28;20046;-80
2021/08/31 22:26:06;;;;;;;33.58;17.83;;;;;;;13.23;87.75;101307.75;20667913;28;20456;-80
2021/08/31 22:36:08;;;;;;;31.30;17.42;;;;;;;13.22;88.52;101302.50;20668416;28;20182;-79
2021/08/31 22:46:10;;;;;;;32.67;17.63;;;;;;;13.14;88.33;101312.22;20669272;28;20187;-79
2021/08/31 22:56:14;;;;;;;29.83;18.00;;;;;;;12.99;88.03;101311.50;20677683;28;20497;-79
2021/08/31 23:06:16;;;;;;;34.75;18.67;;;;;;;12.91;87.74;101318.59;20662278;28;20417;-79
2021/08/31 23:16:17;;;;;;;32.78;17.83;;;;;;;12.75;88.93;101322.28;20662571;28;20492;-79
2021/08/31 23:26:28;;;;;;;33.75;18.88;;;;;;;12.74;88.56;101313.53;20677484;28;20074;-79
2021/08/31 23:36:29;;;;;;;33.78;18.33;;;;;;;12.62;88.47;101310.16;20658033;28;20046;-79
2021/08/31 23:46:31;;;;;;;36.03;19.58;;;;;;;12.54;89.13;101328.59;20675139;28;20108;-79
2021/08/31 23:56:36;;;;;;;;;;;;;;;12.56;88.98;101318.97;20674614;28;20042;-79
